createdAt,value
2023-04-10T00:01:11.851Z,87.17
2023-04-10T00:03:57.835Z,87.68
2023-04-10T00:06:43.339Z,87.84
2023-04-10T00:09:29.640Z,88.03
2023-04-10T00:12:15.813Z,88.04
2023-04-10T00:15:00.785Z,88.45
2023-04-10T00:17:45.756Z,88.70
2023-04-10T00:20:31.030Z,88.43
2023-04-10T00:23:16.218Z,88.90
2023-04-10T00:26:01.642Z,89.12
2023-04-10T00:28:46.531Z,89.15
2023-04-10T00:31:34.390Z,89.10
2023-04-10T00:34:19.310Z,89.54
2023-04-10T00:37:04.150Z,90.01
2023-04-10T00:39:49.035Z,90.16
2023-04-10T00:42:33.997Z,90.28
2023-04-10T00:45:19.378Z,90.62
2023-04-10T00:48:04.295Z,91.24
2023-04-10T00:50:49.676Z,91.52
2023-04-10T00:53:35.037Z,91.75
2023-04-10T00:56:21.052Z,92.04
2023-04-10T00:59:07.248Z,92.40
2023-04-10T01:01:53.027Z,92.98
2023-04-10T01:04:38.559Z,93.25
2023-04-10T01:07:43.642Z,93.22
2023-04-10T01:10:42.205Z,93.40
2023-04-10T01:13:48.588Z,93.51
2023-04-10T01:16:46.615Z,93.81
2023-04-10T01:19:43.969Z,94.23
2023-04-10T01:22:41.781Z,94.32
2023-04-10T01:25:45.537Z,94.46
2023-04-10T01:29:05.360Z,94.91
2023-04-10T01:31:58.320Z,95.57
2023-04-10T01:34:46.715Z,95.90
2023-04-10T01:37:34.612Z,96.00
2023-04-10T01:40:21.047Z,96.14
2023-04-10T01:43:10.286Z,96.59
2023-04-10T01:45:57.423Z,96.60
2023-04-10T01:48:44.503Z,95.74
2023-04-10T01:51:31.182Z,95.16
2023-04-10T01:54:17.301Z,94.54
2023-04-10T01:57:04.316Z,94.23
2023-04-10T01:59:49.825Z,94.03
2023-04-10T02:02:35.659Z,93.90
2023-04-10T02:05:22.270Z,93.76
2023-04-10T02:08:24.696Z,93.69
2023-04-10T02:11:22.547Z,93.80
2023-04-10T02:14:11.945Z,93.92
2023-04-10T02:16:58.238Z,94.13
2023-04-10T02:19:46.516Z,94.46
2023-04-10T02:22:31.957Z,94.48
2023-04-10T02:25:16.933Z,94.71
2023-04-10T02:28:06.278Z,94.85
2023-04-10T02:30:51.150Z,94.96
2023-04-10T02:33:36.598Z,95.29
2023-04-10T02:36:21.590Z,95.52
2023-04-10T02:39:08.537Z,95.74
2023-04-10T02:41:53.811Z,96.09
2023-04-10T02:44:39.678Z,96.28
2023-04-10T02:47:24.660Z,96.62
2023-04-10T02:50:10.697Z,96.94
2023-04-10T02:52:56.651Z,97.44
2023-04-10T02:55:41.967Z,97.76
2023-04-10T02:58:28.213Z,98.15
2023-04-10T03:01:13.873Z,98.55
2023-04-10T03:03:59.341Z,98.89
2023-04-10T03:06:44.878Z,99.38
2023-04-10T03:09:30.279Z,100.00
2023-04-10T03:12:15.298Z,100.00
2023-04-10T03:15:00.524Z,100.00
2023-04-10T03:17:45.455Z,100.00
2023-04-10T03:20:30.894Z,100.00
2023-04-10T03:23:16.458Z,100.00
2023-04-10T03:26:01.860Z,100.00
2023-04-10T03:28:46.926Z,100.00
2023-04-10T03:31:31.722Z,100.00
2023-04-10T03:34:16.950Z,100.00
2023-04-10T03:37:03.072Z,100.00
2023-04-10T03:39:48.551Z,100.00
2023-04-10T03:42:33.945Z,100.00
2023-04-10T03:45:19.218Z,100.00
2023-04-10T03:48:04.516Z,100.00
2023-04-10T03:50:49.606Z,100.00
2023-04-10T03:53:36.355Z,100.00
2023-04-10T03:56:21.503Z,100.00
2023-04-10T03:59:06.687Z,100.00
2023-04-10T04:01:52.885Z,100.00
2023-04-10T04:04:38.417Z,100.00
2023-04-10T04:07:23.706Z,100.00
2023-04-10T04:10:09.299Z,100.00
2023-04-10T04:12:54.468Z,100.00
2023-04-10T04:15:39.867Z,100.00
2023-04-10T04:18:24.969Z,100.00
2023-04-10T04:21:10.317Z,100.00
2023-04-10T04:23:55.695Z,100.00
2023-04-10T04:26:41.064Z,100.00
2023-04-10T04:29:26.056Z,100.00
2023-04-10T04:32:11.463Z,100.00
2023-04-10T04:34:56.777Z,100.00
2023-04-10T04:37:42.007Z,100.00
2023-04-10T04:40:27.104Z,100.00
2023-04-10T04:43:12.519Z,100.00
2023-04-10T04:45:57.942Z,100.00
2023-04-10T04:48:43.340Z,100.00
2023-04-10T04:51:28.221Z,100.00
2023-04-10T04:54:13.473Z,100.00
2023-04-10T04:56:58.290Z,100.00
2023-04-10T04:59:43.384Z,100.00
2023-04-10T05:02:28.721Z,100.00
2023-04-10T05:05:13.962Z,100.00
2023-04-10T05:07:58.895Z,100.00
2023-04-10T05:10:44.043Z,100.00
2023-04-10T05:13:29.053Z,100.00
2023-04-10T05:16:14.091Z,100.00
2023-04-10T05:18:59.778Z,100.00
2023-04-10T05:21:44.906Z,100.00
2023-04-10T05:24:30.119Z,100.00
2023-04-10T05:27:15.385Z,100.00
2023-04-10T05:30:00.729Z,100.00
2023-04-10T05:32:48.754Z,100.00
2023-04-10T05:35:34.172Z,100.00
2023-04-10T05:38:19.154Z,100.00
2023-04-10T05:41:04.111Z,100.00
2023-04-10T05:43:49.899Z,100.00
2023-04-10T05:46:35.256Z,100.00
2023-04-10T05:49:20.110Z,100.00
2023-04-10T05:52:05.596Z,100.00
2023-04-10T05:54:52.095Z,100.00
2023-04-10T05:57:37.173Z,100.00
2023-04-10T06:00:22.094Z,100.00
2023-04-10T06:03:07.160Z,100.00
2023-04-10T06:05:52.312Z,100.00
2023-04-10T06:08:37.555Z,100.00
2023-04-10T06:11:22.864Z,100.00
2023-04-10T06:14:08.218Z,100.00
2023-04-10T06:16:53.451Z,100.00
2023-04-10T06:19:38.429Z,100.00
2023-04-10T06:22:23.489Z,100.00
2023-04-10T06:25:09.027Z,100.00
2023-04-10T06:27:54.398Z,100.00
2023-04-10T06:30:39.677Z,100.00
2023-04-10T06:33:26.331Z,100.00
2023-04-10T06:36:11.696Z,100.00
2023-04-10T06:38:56.836Z,100.00
2023-04-10T06:41:41.849Z,100.00
2023-04-10T06:44:26.955Z,100.00
2023-04-10T06:47:13.249Z,100.00
2023-04-10T06:49:58.183Z,100.00
2023-04-10T06:52:47.911Z,100.00
2023-04-10T06:55:33.272Z,100.00
2023-04-10T06:58:18.566Z,100.00
2023-04-10T07:01:04.821Z,100.00
2023-04-10T07:03:50.516Z,100.00
2023-04-10T07:06:36.052Z,100.00
2023-04-10T07:09:21.270Z,100.00
2023-04-10T07:12:06.346Z,100.00
2023-04-10T07:14:51.602Z,100.00
2023-04-10T07:17:38.256Z,100.00
2023-04-10T07:20:23.372Z,100.00
2023-04-10T07:23:08.252Z,100.00
2023-04-10T07:25:53.465Z,100.00
2023-04-10T07:28:38.423Z,100.00
2023-04-10T07:31:24.014Z,100.00
2023-04-10T07:34:11.164Z,100.00
2023-04-10T07:36:56.661Z,100.00
2023-04-10T07:39:41.737Z,100.00
2023-04-10T07:42:26.755Z,100.00
2023-04-10T07:45:12.285Z,100.00
2023-04-10T07:48:11.191Z,100.00
2023-04-10T07:50:56.367Z,100.00
2023-04-10T07:53:41.965Z,100.00
2023-04-10T07:56:26.866Z,100.00
2023-04-10T07:59:11.844Z,100.00
2023-04-10T08:01:57.306Z,100.00
2023-04-10T08:04:42.895Z,100.00
2023-04-10T08:07:28.101Z,100.00
2023-04-10T08:10:13.067Z,100.00
2023-04-10T08:12:58.437Z,100.00
2023-04-10T08:15:43.706Z,100.00
2023-04-10T08:18:28.992Z,100.00
2023-04-10T08:21:14.469Z,100.00
2023-04-10T08:24:02.123Z,100.00
2023-04-10T08:26:47.265Z,100.00
2023-04-10T08:29:32.701Z,100.00
2023-04-10T08:32:17.643Z,100.00
2023-04-10T08:35:02.666Z,100.00
2023-04-10T08:37:53.620Z,100.00
2023-04-10T08:40:47.331Z,100.00
2023-04-10T08:43:34.596Z,100.00
2023-04-10T08:46:20.404Z,100.00
2023-04-10T08:49:05.831Z,100.00
2023-04-10T08:51:57.185Z,100.00
2023-04-10T08:54:45.712Z,100.00
2023-04-10T08:57:30.977Z,100.00
2023-04-10T09:00:23.145Z,100.00
2023-04-10T09:03:14.173Z,100.00
2023-04-10T09:06:04.241Z,100.00
2023-04-10T09:08:49.176Z,100.00
2023-04-10T09:11:52.558Z,100.00
2023-04-10T09:14:37.739Z,100.00
2023-04-10T09:17:24.409Z,100.00
2023-04-10T09:20:21.951Z,100.00
2023-04-10T09:23:22.309Z,100.00
2023-04-10T09:26:34.024Z,100.00
2023-04-10T09:29:19.524Z,100.00
2023-04-10T09:32:04.699Z,100.00
2023-04-10T09:34:54.605Z,100.00
2023-04-10T09:37:41.573Z,100.00
2023-04-10T09:40:26.712Z,100.00
2023-04-10T09:43:26.270Z,100.00
2023-04-10T09:46:11.828Z,100.00
2023-04-10T09:48:57.142Z,100.00
2023-04-10T09:51:43.252Z,100.00
2023-04-10T09:54:38.041Z,100.00
2023-04-10T09:57:25.667Z,100.00
2023-04-10T10:00:14.125Z,100.00
2023-04-10T10:03:01.592Z,100.00
2023-04-10T10:05:51.152Z,100.00
2023-04-10T10:08:39.644Z,100.00
2023-04-10T10:11:28.966Z,100.00
2023-04-10T10:14:18.665Z,100.00
2023-04-10T10:17:08.198Z,100.00
2023-04-10T10:20:09.784Z,100.00
2023-04-10T10:22:56.145Z,100.00
2023-04-10T10:25:42.830Z,100.00
2023-04-10T10:28:31.481Z,100.00
2023-04-10T10:31:18.603Z,100.00
2023-04-10T10:34:05.540Z,100.00
2023-04-10T10:36:50.514Z,100.00
2023-04-10T10:39:38.809Z,100.00
2023-04-10T10:42:39.832Z,100.00
2023-04-10T10:45:36.383Z,100.00
2023-04-10T10:48:21.678Z,100.00
2023-04-10T10:51:07.180Z,100.00
2023-04-10T10:53:52.085Z,100.00
2023-04-10T10:56:37.252Z,100.00
2023-04-10T10:59:47.754Z,100.00
2023-04-10T11:02:32.840Z,100.00
2023-04-10T11:05:55.047Z,100.00
2023-04-10T11:08:46.590Z,100.00
2023-04-10T11:11:33.589Z,100.00
2023-04-10T11:14:19.293Z,100.00
2023-04-10T11:17:04.501Z,100.00
2023-04-10T11:20:03.223Z,100.00
2023-04-10T11:23:11.229Z,100.00
2023-04-10T11:25:56.585Z,100.00
2023-04-10T11:28:42.142Z,100.00
2023-04-10T11:31:27.934Z,100.00
2023-04-10T11:34:13.216Z,100.00
2023-04-10T11:36:59.315Z,100.00
2023-04-10T11:39:44.292Z,100.00
2023-04-10T11:42:29.342Z,100.00
2023-04-10T11:45:24.016Z,100.00
2023-04-10T11:48:09.568Z,100.00
2023-04-10T11:50:55.032Z,100.00
2023-04-10T11:53:41.544Z,100.00
2023-04-10T11:56:26.764Z,100.00
2023-04-10T11:59:13.517Z,100.00
2023-04-10T12:02:09.449Z,100.00
2023-04-10T12:04:59.032Z,100.00
2023-04-10T12:07:44.489Z,100.00
2023-04-10T12:10:45.497Z,100.00
2023-04-10T12:13:31.305Z,100.00
2023-04-10T12:16:16.573Z,100.00
2023-04-10T12:19:02.525Z,100.00
2023-04-10T12:21:47.656Z,100.00
2023-04-10T12:24:47.495Z,100.00
2023-04-10T12:27:32.638Z,100.00
2023-04-10T12:30:18.250Z,100.00
2023-04-10T12:33:05.966Z,100.00
2023-04-10T12:35:52.276Z,100.00
2023-04-10T12:38:39.728Z,100.00
2023-04-10T12:41:27.363Z,100.00
2023-04-10T12:44:14.213Z,100.00
2023-04-10T12:47:02.111Z,100.00
2023-04-10T12:50:07.555Z,100.00
2023-04-10T12:53:07.623Z,100.00
2023-04-10T12:56:03.051Z,100.00
2023-04-10T12:58:49.142Z,100.00
2023-04-10T13:01:34.297Z,100.00
2023-04-10T13:04:19.973Z,100.00
2023-04-10T13:07:04.938Z,100.00
2023-04-10T13:09:50.479Z,99.16
2023-04-10T13:12:36.440Z,95.27
2023-04-10T13:15:21.621Z,95.28
2023-04-10T13:18:07.246Z,97.43
2023-04-10T13:20:52.501Z,96.40
2023-04-10T13:23:37.829Z,93.87
2023-04-10T13:26:24.440Z,91.77
2023-04-10T13:29:09.540Z,88.85
2023-04-10T13:31:54.776Z,86.01
2023-04-10T13:34:39.806Z,83.03
2023-04-10T13:37:26.090Z,82.02
2023-04-10T13:40:11.646Z,79.71
2023-04-10T13:42:56.642Z,81.41
2023-04-10T13:45:41.956Z,82.00
2023-04-10T13:48:37.272Z,78.89
2023-04-10T13:51:25.622Z,77.13
2023-04-10T13:54:10.998Z,74.31
2023-04-10T13:56:56.216Z,75.54
2023-04-10T13:59:41.249Z,75.65
2023-04-10T14:02:26.578Z,78.12
2023-04-10T14:05:11.761Z,73.96
2023-04-10T14:07:57.288Z,72.37
2023-04-10T14:10:42.785Z,71.96
2023-04-10T14:13:27.816Z,69.77
2023-04-10T14:16:13.125Z,70.39
2023-04-10T14:18:58.349Z,70.54
2023-04-10T14:21:44.496Z,70.45
2023-04-10T14:24:29.805Z,72.28
2023-04-10T14:27:14.851Z,72.02
2023-04-10T14:29:59.939Z,73.43
2023-04-10T14:32:44.834Z,74.33
2023-04-10T14:35:30.397Z,73.70
2023-04-10T14:38:15.993Z,71.79
2023-04-10T14:41:01.355Z,71.44
2023-04-10T14:43:46.478Z,70.64
2023-04-10T14:46:31.374Z,71.24
2023-04-10T14:49:16.359Z,73.39
2023-04-10T14:52:01.296Z,75.26
2023-04-10T14:54:46.546Z,73.53
2023-04-10T14:57:31.781Z,70.46
2023-04-10T15:00:17.334Z,69.25
2023-04-10T15:03:02.443Z,69.63
2023-04-10T15:05:47.594Z,71.93
2023-04-10T15:08:32.537Z,76.74
2023-04-10T15:11:17.411Z,77.27
2023-04-10T15:14:02.828Z,80.24
2023-04-10T15:16:47.904Z,83.20
2023-04-10T15:19:32.754Z,85.41
2023-04-10T15:22:17.805Z,83.79
2023-04-10T15:25:03.189Z,81.25
2023-04-10T15:27:48.116Z,80.24
2023-04-10T15:30:33.193Z,77.45
2023-04-10T15:33:18.448Z,76.99
2023-04-10T15:36:04.219Z,76.38
2023-04-10T15:38:50.309Z,76.01
2023-04-10T15:41:35.485Z,72.24
2023-04-10T15:44:20.898Z,73.57
2023-04-10T15:47:06.133Z,71.04
2023-04-10T15:49:51.158Z,70.21
2023-04-10T15:52:36.126Z,67.33
2023-04-10T15:55:21.093Z,66.95
2023-04-10T15:58:06.462Z,67.19
2023-04-10T16:00:51.793Z,67.55
2023-04-10T16:03:36.791Z,68.30
2023-04-10T16:06:25.871Z,68.40
2023-04-10T16:09:24.989Z,69.16
2023-04-10T16:12:13.395Z,70.18
2023-04-10T16:14:58.417Z,69.02
2023-04-10T16:17:43.467Z,69.13
2023-04-10T16:20:30.366Z,70.29
2023-04-10T16:23:15.510Z,71.52
2023-04-10T16:26:00.636Z,73.31
2023-04-10T16:28:45.525Z,75.04
2023-04-10T16:31:31.188Z,75.05
2023-04-10T16:34:16.598Z,75.00
2023-04-10T16:37:01.586Z,75.60
2023-04-10T16:39:46.512Z,74.51
2023-04-10T16:42:31.684Z,74.37
2023-04-10T16:45:16.931Z,75.27
2023-04-10T16:48:02.369Z,75.93
2023-04-10T16:50:47.931Z,77.06
2023-04-10T16:53:36.027Z,75.75
2023-04-10T16:56:21.488Z,75.28
2023-04-10T16:59:06.724Z,76.09
2023-04-10T17:01:51.787Z,75.17
2023-04-10T17:04:37.206Z,73.67
2023-04-10T17:07:23.135Z,74.81
2023-04-10T17:10:08.454Z,75.20
2023-04-10T17:12:53.469Z,73.23
2023-04-10T17:15:38.668Z,72.07
2023-04-10T17:18:23.869Z,72.53
2023-04-10T17:21:13.694Z,72.35
2023-04-10T17:23:58.816Z,73.07
2023-04-10T17:26:43.757Z,73.76
2023-04-10T17:29:28.952Z,75.04
2023-04-10T17:32:14.062Z,76.37
2023-04-10T17:34:59.069Z,77.94
2023-04-10T17:37:43.980Z,79.78
2023-04-10T17:40:29.217Z,81.12
2023-04-10T17:43:14.291Z,82.17
2023-04-10T17:46:00.366Z,83.34
2023-04-10T17:48:45.615Z,84.37
2023-04-10T17:51:31.666Z,85.74
2023-04-10T17:54:16.571Z,86.71
2023-04-10T17:57:02.681Z,86.13
2023-04-10T17:59:48.662Z,79.83
2023-04-10T18:02:33.651Z,79.02
2023-04-10T18:05:18.898Z,78.21
2023-04-10T18:08:04.012Z,78.75
2023-04-10T18:10:49.575Z,77.73
2023-04-10T18:13:34.805Z,77.71
2023-04-10T18:16:20.202Z,78.10
2023-04-10T18:19:05.509Z,78.66
2023-04-10T18:21:51.704Z,79.40
2023-04-10T18:24:36.998Z,79.94
2023-04-10T18:27:21.974Z,80.65
2023-04-10T18:30:08.220Z,81.27
2023-04-10T18:32:53.379Z,82.23
2023-04-10T18:35:38.685Z,83.37
2023-04-10T18:38:24.557Z,83.88
2023-04-10T18:41:09.682Z,84.76
2023-04-10T18:44:04.344Z,85.94
2023-04-10T18:47:01.354Z,86.98
2023-04-10T18:49:49.129Z,88.00
2023-04-10T18:52:34.066Z,89.19
2023-04-10T18:55:20.976Z,90.13
2023-04-10T18:58:05.948Z,91.10
2023-04-10T19:00:50.988Z,92.02
2023-04-10T19:03:36.557Z,92.73
2023-04-10T19:06:25.484Z,93.48
2023-04-10T19:09:10.579Z,94.14
2023-04-10T19:11:56.204Z,94.65
2023-04-10T19:14:41.391Z,95.13
2023-04-10T19:17:26.707Z,96.15
2023-04-10T19:20:11.773Z,97.11
2023-04-10T19:22:57.209Z,98.02
2023-04-10T19:25:43.643Z,98.93
2023-04-10T19:28:29.402Z,100.00
2023-04-10T19:31:14.513Z,100.00
2023-04-10T19:34:02.384Z,100.00
2023-04-10T19:36:47.486Z,100.00
2023-04-10T19:39:32.793Z,100.00
2023-04-10T19:42:17.998Z,100.00
2023-04-10T19:45:03.441Z,100.00
2023-04-10T19:47:50.719Z,100.00
2023-04-10T19:50:36.002Z,100.00
2023-04-10T19:53:21.310Z,100.00
2023-04-10T19:56:07.030Z,100.00
2023-04-10T19:58:52.237Z,100.00
2023-04-10T20:01:37.736Z,100.00
2023-04-10T20:04:22.891Z,100.00
2023-04-10T20:07:08.352Z,100.00
2023-04-10T20:09:53.490Z,100.00
2023-04-10T20:12:38.536Z,100.00
2023-04-10T20:15:23.644Z,100.00
2023-04-10T20:18:08.608Z,100.00
2023-04-10T20:20:53.704Z,100.00
2023-04-10T20:23:38.972Z,100.00
2023-04-10T20:26:25.854Z,100.00
2023-04-10T20:29:11.928Z,100.00
2023-04-10T20:31:57.242Z,100.00
2023-04-10T20:34:42.379Z,100.00
2023-04-10T20:37:27.579Z,100.00
2023-04-10T20:40:12.799Z,100.00
2023-04-10T20:42:57.927Z,100.00
2023-04-10T20:45:43.331Z,100.00
2023-04-10T20:48:28.380Z,100.00
2023-04-10T20:51:13.327Z,100.00
2023-04-10T20:53:58.293Z,100.00
2023-04-10T20:56:44.116Z,100.00
2023-04-10T20:59:29.691Z,99.21
2023-04-10T21:02:17.538Z,98.11
2023-04-10T21:05:03.448Z,95.46
2023-04-10T21:07:48.793Z,94.23
2023-04-10T21:10:34.733Z,93.72
2023-04-10T21:13:20.120Z,92.22
2023-04-10T21:16:06.538Z,90.76
2023-04-10T21:18:53.519Z,89.59
2023-04-10T21:21:39.101Z,88.46
2023-04-10T21:24:24.144Z,87.92
2023-04-10T21:27:09.513Z,87.68
2023-04-10T21:29:54.688Z,87.61
2023-04-10T21:32:39.773Z,87.17
2023-04-10T21:35:25.189Z,86.50
2023-04-10T21:38:13.823Z,86.35
2023-04-10T21:40:59.168Z,86.29
2023-04-10T21:43:44.349Z,86.21
2023-04-10T21:46:30.057Z,86.37
2023-04-10T21:49:15.404Z,86.10
2023-04-10T21:52:00.372Z,85.84
2023-04-10T21:54:45.526Z,85.49
2023-04-10T21:57:30.396Z,85.28
2023-04-10T22:00:16.950Z,84.98
2023-04-10T22:03:02.588Z,85.05
2023-04-10T22:05:49.261Z,84.91
2023-04-10T22:08:34.411Z,84.47
2023-04-10T22:11:19.571Z,84.77
2023-04-10T22:14:15.724Z,84.75
2023-04-10T22:17:02.660Z,84.99
2023-04-10T22:19:48.044Z,85.11
2023-04-10T22:22:33.355Z,85.32
2023-04-10T22:25:18.740Z,85.66
2023-04-10T22:28:03.908Z,86.02
2023-04-10T22:30:49.236Z,86.19
2023-04-10T22:33:34.124Z,86.09
2023-04-10T22:36:18.852Z,86.38
2023-04-10T22:39:04.074Z,86.61
2023-04-10T22:41:49.240Z,86.50
2023-04-10T22:44:34.310Z,86.82
2023-04-10T22:47:19.495Z,87.02
2023-04-10T22:50:05.247Z,86.85
2023-04-10T22:52:50.707Z,87.46
2023-04-10T22:55:40.583Z,88.09
2023-04-10T22:58:25.986Z,88.09
2023-04-10T23:01:14.142Z,88.19
2023-04-10T23:03:59.109Z,88.39
2023-04-10T23:06:44.144Z,88.45
2023-04-10T23:09:29.086Z,88.02
2023-04-10T23:12:13.928Z,88.34
2023-04-10T23:14:59.003Z,88.78
2023-04-10T23:17:44.229Z,88.91
2023-04-10T23:20:29.296Z,89.06
2023-04-10T23:23:14.627Z,89.55
2023-04-10T23:26:00.809Z,89.92
2023-04-10T23:28:45.614Z,90.05
2023-04-10T23:31:30.848Z,90.13
2023-04-10T23:34:16.037Z,90.64
2023-04-10T23:37:01.025Z,90.50
2023-04-10T23:39:45.905Z,90.71
2023-04-10T23:42:31.222Z,90.88
2023-04-10T23:45:16.399Z,90.83
2023-04-10T23:48:01.804Z,91.27
2023-04-10T23:50:46.909Z,91.61
2023-04-10T23:53:32.186Z,91.87
2023-04-10T23:56:17.218Z,91.85
2023-04-10T23:59:02.356Z,92.09
